Latest Weather Observations for Brisbane

IDQ60801

Issued at 10:02 pm EST Tuesday 27 January 2015 (issued every 30 minutes, with the page automatically refreshed every 10 minutes)

About weather observations | Map of weather stations | Latest weather observations for QLD | Other Formats
Station Details ID: 040913 Name: BRISBANE Lat: -27.48 Lon: 153.04 Height: 8.13 m
Data from the previous 72 hours. | See also: Recent months at Brisbane
Date/Time
EST
Temp
°C
App
Temp
°C
Dew
Point
Rel
Hum
%
Delta-T
°C
Wind Press
QNH
hPa
Press
MSL
hPa
Rain
since 9 am
mm
Dir
 
Spd
km/h
Gust
km/h
Spd
kts
Gust
kts
27/10:00pm 23.4 26.7 20.7 85 1.8 ESE 4 7 2 4 1007.4 1007.3 1.0
27/09:30pm 24.2 27.3 20.3 79 2.5 E 4 6 2 3 1007.7 1007.6 0.4
27/09:00pm 24.6 27.2 20.1 76 2.9 ESE 6 13 3 7 1007.5 1007.4 0.0
27/08:30pm 25.1 27.4 19.9 73 3.4 ESE 7 15 4 8 1007.0 1006.9 0.0
27/08:00pm 25.2 27.0 19.6 71 3.6 ESE 9 19 5 10 1006.7 1006.6 0.0
27/07:30pm 25.4 26.9 19.8 71 3.6 E 11 17 6 9 1006.2 1006.1 0.0
27/07:00pm 25.5 26.9 19.6 70 3.8 ESE 11 19 6 10 1006.4 1006.3 0.0
27/06:30pm 25.6 27.0 19.5 69 3.9 E 11 20 6 11 1006.1 1006.0 0.0
27/06:00pm 26.1 27.3 19.0 65 4.6 ESE 11 19 6 10 1005.7 1005.6 0.0
27/05:30pm 26.6 27.2 18.7 62 5.0 ESE 13 24 7 13 1005.0 1004.9 0.0
27/05:00pm 27.0 27.8 19.1 62 5.1 E 13 24 7 13 1004.8 1004.7 0.0
27/04:30pm 26.9 27.5 19.5 64 4.8 ESE 15 24 8 13 1004.7 1004.6 0.0
27/04:00pm 27.7 28.9 20.0 63 5.0 ESE 13 24 7 13 1004.6 1004.5 0.0
27/03:30pm 27.7 28.1 19.8 62 5.1 E 17 28 9 15 1005.0 1004.9 0.0
27/03:00pm 28.1 29.5 20.4 63 5.1 E 13 24 7 13 1005.1 1005.0 0.0
27/02:30pm 28.4 29.8 20.4 62 5.3 E 13 24 7 13 1005.4 1005.3 0.0
27/02:00pm 28.8 30.6 21.1 63 5.1 E 13 22 7 12 1005.7 1005.6 0.0
27/01:30pm 28.7 29.9 20.7 62 5.3 E 15 28 8 15 1006.1 1006.0 0.0
27/01:00pm 28.8 30.3 20.5 61 5.5 ESE 13 20 7 11 1006.2 1006.1 0.0
27/12:30pm 29.3 30.9 21.5 63 5.2 E 15 24 8 13 1006.5 1006.4 0.0
27/12:00pm 29.3 31.1 21.8 64 5.1 E 15 26 8 14 1007.1 1007.0 0.0
27/11:30am 29.1 30.9 21.1 62 5.3 ESE 13 20 7 11 1007.6 1007.5 0.0
27/11:00am 29.1 30.5 21.1 62 5.3 ESE 15 22 8 12 1007.9 1007.8 0.0
27/10:30am 27.9 28.9 21.0 66 4.6 E 17 28 9 15 1008.2 1008.1 0.0
27/10:00am 28.8 30.6 21.1 63 5.1 ESE 13 19 7 10 1008.1 1008.0 0.0
27/09:30am 28.5 30.4 20.5 62 5.3 E 11 20 6 11 1008.0 1007.9 0.0
27/09:00am 28.5 30.7 20.5 62 5.3 ESE 9 15 5 8 1007.8 1007.7 0.0
27/08:30am 28.8 31.3 21.1 63 5.1 E 9 19 5 10 1007.8 1007.7 0.0
27/08:00am 27.9 30.5 21.2 67 4.5 ESE 9 19 5 10 1007.8 1007.7 0.0
27/07:30am 27.4 31.0 22.1 73 3.6 E 6 9 3 5 1007.8 1007.7 0.0
27/07:00am 25.6 29.6 22.1 81 2.3 SE 4 9 2 5 1007.6 1007.5 0.0
27/06:30am 25.7 30.4 22.6 83 2.1 SSE 2 6 1 3 1007.7 1007.6 0.0
27/06:00am 24.0 28.6 21.7 87 1.5 CALM 0 0 0 0 1007.7 1007.6 0.0
27/05:30am 23.8 28.1 21.1 85 1.8 CALM 0 0 0 0 1007.3 1007.2 0.0
27/05:00am 24.2 27.9 21.5 85 1.8 ESE 4 6 2 3 1006.9 1006.8 0.0
27/04:30am 24.4 28.0 21.3 83 2.0 SE 4 7 2 4 1006.6 1006.5 0.0
27/04:00am 24.7 28.5 21.6 83 2.1 SSE 4 7 2 4 1006.6 1006.5 0.0
27/03:30am 24.7 28.5 21.6 83 2.1 SE 4 6 2 3 1006.5 1006.4 0.0
27/03:00am 24.9 28.4 21.8 83 2.1 ESE 6 11 3 6 1006.4 1006.3 0.0
27/02:30am 25.1 28.5 22.0 83 2.1 SE 7 17 4 9 1006.1 1006.0 0.0
27/02:00am 25.2 28.8 22.1 83 2.1 SE 6 11 3 6 1006.5 1006.4 0.0
27/01:30am 25.3 29.8 22.2 83 2.1 ESE 2 4 1 2 1006.7 1006.6 0.0
27/01:00am 25.5 29.6 22.2 82 2.2 ESE 4 6 2 3 1007.0 1006.9 0.0
27/12:30am 25.6 30.4 22.1 81 2.3 CALM 0 0 0 0 1007.5 1007.4 0.0
27/12:00am 25.9 30.0 22.2 80 2.5 ESE 4 7 2 4 1007.7 1007.6 0.0
 
Date/Time
EST
Temp
°C
App
Temp
°C
Dew
Point
Rel
Hum
%
Delta-T
°C
Wind Press
QNH
hPa
Press
MSL
hPa
Rain
since 9 am
mm
Dir
 
Spd
km/h
Gust
km/h
Spd
kts
Gust
kts
26/11:30pm 26.1 30.2 22.2 79 2.6 ESE 4 9 2 5 1008.4 1008.3 0.0
26/11:00pm 26.1 30.6 22.2 79 2.6 ESE 2 6 1 3 1008.5 1008.4 0.0
26/10:30pm 26.1 29.7 22.0 78 2.7 ESE 6 13 3 7 1008.5 1008.4 0.0
26/10:00pm 26.1 29.6 22.2 79 2.6 ESE 7 17 4 9 1008.4 1008.3 0.0
26/09:30pm 26.1 29.8 22.2 79 2.6 ESE 6 9 3 5 1008.7 1008.6 0.0
26/09:00pm 26.4 30.1 22.3 78 2.8 SE 6 13 3 7 1008.6 1008.5 0.0
26/08:30pm 26.6 29.7 22.2 77 3.0 ESE 9 15 5 8 1008.9 1008.8 0.0
26/08:00pm 26.9 30.5 22.3 76 3.1 SE 7 15 4 8 1008.9 1008.8 0.0
26/07:30pm 27.0 30.2 22.4 76 3.1 ESE 9 19 5 10 1008.3 1008.2 0.0
26/07:00pm 27.3 31.1 22.7 76 3.1 SE 7 17 4 9 1008.4 1008.3 0.0
26/06:30pm 27.5 30.6 22.9 76 3.1 SE 11 22 6 12 1007.8 1007.7 0.0
26/06:00pm 27.6 30.8 23.0 76 3.1 ESE 11 26 6 14 1006.5 1006.4 0.0
26/05:30pm 28.1 31.3 23.7 77 3.0 ESE 13 20 7 11 1006.7 1006.6 0.0
26/05:00pm 28.7 31.8 23.6 74 3.5 ESE 13 22 7 12 1006.1 1006.0 0.0
26/04:30pm 29.2 32.1 23.2 70 4.1 E 13 26 7 14 1005.5 1005.4 0.0
26/04:00pm 30.3 32.9 22.7 64 5.2 E 13 20 7 11 1005.4 1005.3 0.0
26/03:30pm 31.4 32.9 21.3 55 6.8 E 15 26 8 14 1005.3 1005.2 0.0
26/03:00pm 32.0 33.6 21.5 53 7.1 ESE 15 24 8 13 1005.0 1004.9 0.0
26/02:30pm 31.4 33.2 21.8 56 6.5 E 15 24 8 13 1005.1 1005.0 0.0
26/02:00pm 31.9 34.5 24.0 63 5.5 E 17 28 9 15 1005.0 1004.9 0.0
26/01:30pm 31.7 35.1 24.6 66 5.0 E 15 24 8 13 1005.1 1005.0 0.0
26/01:00pm 30.8 33.1 23.5 65 5.1 E 17 26 9 14 1005.4 1005.3 0.0
26/12:30pm 31.8 35.3 24.9 67 4.9 E 15 26 8 14 1005.7 1005.6 0.0
26/12:00pm 31.1 34.0 23.2 63 5.5 E 13 19 7 10 1006.2 1006.1 0.0
26/11:30am 32.8 36.4 24.3 61 6.0 E 13 24 7 13 1006.2 1006.1 0.0
26/11:00am 32.0 36.4 25.1 67 4.9 NE 11 20 6 11 1006.6 1006.5 0.0
26/10:30am 32.3 37.6 25.9 69 4.6 ENE 9 17 5 9 1006.7 1006.6 0.0
26/10:00am 31.8 36.6 24.1 63 5.4 ENE 6 13 3 7 1006.7 1006.6 0.0
26/09:30am 31.5 35.8 23.3 61 5.7 E 6 11 3 6 1006.8 1006.7 0.0
26/09:00am 31.0 36.0 23.9 66 4.9 ENE 4 9 2 5 1006.9 1006.8 0.0
26/08:30am 29.9 34.7 22.9 66 4.8 SSW 2 4 1 2 1007.0 1006.9 0.0
26/08:00am 28.8 33.2 22.1 67 4.5 SW 2 7 1 4 1007.0 1006.9 0.0
26/07:30am 28.2 32.2 22.0 69 4.2 SSW 4 7 2 4 1006.9 1006.8 0.0
26/07:00am 27.4 31.6 21.7 71 3.8 SW 2 6 1 3 1006.9 1006.8 0.0
26/06:30am 26.4 30.5 21.6 75 3.2 WSW 2 6 1 3 1006.7 1006.6 0.0
26/06:00am 25.6 30.3 21.9 80 2.5 CALM 0 2 0 1 1006.2 1006.1 0.0
26/05:30am 25.1 29.6 22.2 84 1.9 S 2 9 1 5 1005.8 1005.7 0.0
26/05:00am 25.4 30.1 22.7 85 1.8 SSW 2 4 1 2 1005.4 1005.3 0.0
26/04:30am 25.8 30.7 23.1 85 1.8 SSW 2 4 1 2 1005.3 1005.2 0.0
26/04:00am 26.4 32.2 24.6 90 1.3 SSW 2 4 1 2 1005.2 1005.1 0.0
26/03:30am 26.2 32.4 24.6 91 1.1 CALM 0 0 0 0 1005.0 1004.9 0.0
26/03:00am 26.4 32.4 24.8 91 1.1 ESE 2 4 1 2 1005.1 1005.0 0.0
26/02:30am 26.5 32.5 24.9 91 1.1 E 2 6 1 3 1005.1 1005.0 0.0
26/02:00am 26.6 32.3 25.0 91 1.1 ESE 4 6 2 3 1005.2 1005.1 0.0
26/01:30am 26.8 33.1 24.8 89 1.4 CALM 0 0 0 0 1005.2 1005.1 0.0
26/01:00am 27.1 33.6 25.1 89 1.4 CALM 0 0 0 0 1005.6 1005.5 0.0
26/12:30am 27.2 32.9 25.0 88 1.5 SSE 4 7 2 4 1006.1 1006.0 0.0
26/12:00am 27.3 33.2 25.3 89 1.4 SSE 4 7 2 4 1006.3 1006.2 0.0
 
Date/Time
EST
Temp
°C
App
Temp
°C
Dew
Point
Rel
Hum
%
Delta-T
°C
Wind Press
QNH
hPa
Press
MSL
hPa
Rain
since 9 am
mm
Dir
 
Spd
km/h
Gust
km/h
Spd
kts
Gust
kts
25/11:30pm 27.1 33.2 25.1 89 1.4 E 2 4 1 2 1006.2 1006.1 0.0
25/11:00pm 27.0 33.5 25.0 89 1.4 CALM 0 0 0 0 1005.8 1005.7 0.0
25/10:30pm 27.4 33.2 25.2 88 1.5 ENE 4 6 2 3 1006.0 1005.9 0.0
25/10:00pm 27.5 33.0 25.3 88 1.5 ESE 6 9 3 5 1005.9 1005.8 0.0
25/09:30pm 27.6 33.2 25.4 88 1.5 ESE 6 9 3 5 1006.3 1006.2 0.0
25/09:00pm 27.7 33.6 25.3 87 1.7 NE 4 9 2 5 1005.6 1005.5 0.0
25/08:30pm 27.8 33.4 25.4 87 1.7 NE 6 9 3 5 1005.7 1005.6 0.0
25/08:00pm 27.9 33.4 25.3 86 1.8 NE 6 11 3 6 1005.6 1005.5 0.0
25/07:30pm 27.9 33.2 25.3 86 1.8 NE 7 13 4 7 1005.3 1005.2 0.0
25/07:00pm 28.2 32.9 25.0 83 2.2 NE 9 15 5 8 1004.6 1004.5 0.0
25/06:30pm 28.9 33.7 24.5 77 3.1 NNE 7 13 4 7 1003.6 1003.5 0.0
25/06:00pm 30.1 34.8 24.3 71 4.1 NNE 7 15 4 8 1003.2 1003.1 0.0
25/05:30pm 30.3 33.9 23.7 68 4.6 ENE 11 19 6 10 1002.8 1002.7 0.0
25/05:00pm 31.1 35.4 24.2 66 4.8 NE 9 17 5 9 1002.4 1002.3 0.0
25/04:30pm 31.6 35.7 24.0 64 5.3 NE 9 13 5 7 1002.5 1002.4 0.0
25/04:00pm 32.2 36.9 24.3 63 5.5 NE 7 15 4 8 1002.5 1002.4 0.0
25/03:30pm 32.6 36.4 24.1 61 5.9 ENE 11 15 6 8 1002.8 1002.7 0.0
25/03:00pm 32.2 35.9 23.2 59 6.2 NE 9 15 5 8 1002.7 1002.6 0.0
25/02:30pm 35.0 39.7 24.0 53 7.7 NNW 6 15 3 8 1002.9 1002.8 0.0
25/02:00pm 35.8 38.8 21.3 43 9.9 W 7 19 4 10 1002.9 1002.8 0.0
25/01:30pm 35.2 38.5 22.5 47 8.7 SW 9 17 5 9 1003.1 1003.0 0.0
25/01:00pm 34.9 38.4 22.2 47 8.7 WSW 7 15 4 8 1003.4 1003.3 0.0
25/12:30pm 34.3 36.9 22.0 48 8.4 W 11 19 6 10 1003.8 1003.7 0.0
25/12:00pm 34.3 37.0 21.4 47 8.8 WSW 9 17 5 9 1004.2 1004.1 0.0
25/11:30am 33.9 38.0 23.0 53 7.5 W 6 13 3 7 1004.4 1004.3 0.0
25/11:00am 32.1 36.3 22.5 57 6.6 NNE 4 7 2 4 1004.9 1004.8 0.0
25/10:30am 31.3 35.4 22.3 58 6.1 SW 4 9 2 5 1005.3 1005.2 0.0
25/10:00am 30.9 35.6 23.3 64 5.2 W 4 7 2 4 1005.6 1005.5 0.0
25/09:30am 29.8 33.5 21.5 61 5.6 WNW 4 7 2 4 1005.9 1005.8 0.0
25/09:00am 29.3 33.5 22.5 67 4.6 WNW 4 7 2 4 1006.3 1006.2 0.0
25/08:30am 28.3 31.8 21.1 65 4.8 NW 4 6 2 3 1006.5 1006.4 0.0
25/08:00am 28.1 32.5 21.4 67 4.5 CALM 0 4 0 2 1006.7 1006.6 0.0
25/07:30am 27.4 32.0 21.7 71 3.8 CALM 0 2 0 1 1006.8 1006.7 0.0
25/07:00am 26.8 31.4 21.8 74 3.3 CALM 0 0 0 0 1006.9 1006.8 0.0
25/06:30am 25.2 29.4 21.7 81 2.3 SE 2 4 1 2 1006.6 1006.5 0.0
25/06:00am 23.0 27.5 21.5 91 1.0 CALM 0 0 0 0 1006.2 1006.1 0.0
25/05:30am 22.2 26.2 20.5 90 1.1 CALM 0 0 0 0 1006.0 1005.9 0.0
25/05:00am 22.6 26.8 20.9 90 1.1 CALM 0 0 0 0 1005.9 1005.8 0.0
25/04:30am 22.6 26.8 20.9 90 1.1 CALM 0 0 0 0 1006.0 1005.9 0.0
25/04:00am 22.6 26.7 20.7 89 1.2 CALM 0 0 0 0 1005.8 1005.7 0.0
25/03:30am 22.9 26.9 20.6 87 1.5 CALM 0 6 0 3 1005.7 1005.6 0.0
25/03:00am 23.5 27.2 20.8 85 1.8 WNW 2 4 1 2 1005.8 1005.7 0.0
25/02:30am 23.8 27.4 21.3 86 1.6 NNW 4 7 2 4 1005.7 1005.6 0.0
25/02:00am 22.6 26.8 20.9 90 1.1 CALM 0 0 0 0 1005.7 1005.6 0.0
25/01:30am 22.6 26.8 20.9 90 1.1 CALM 0 0 0 0 1005.8 1005.7 0.0
25/01:00am 22.8 27.1 21.1 90 1.1 CALM 0 4 0 2 1005.8 1005.7 0.0
25/12:30am 22.5 26.7 21.0 91 1.0 CALM 0 2 0 1 1006.2 1006.1 0.0
25/12:00am 22.7 26.9 21.0 90 1.1 CALM 0 0 0 0 1006.3 1006.2 0.0
 
Date/Time
EST
Temp
°C
App
Temp
°C
Dew
Point
Rel
Hum
%
Delta-T
°C
Wind Press
QNH
hPa
Press
MSL
hPa
Rain
since 9 am
mm
Dir
 
Spd
km/h
Gust
km/h
Spd
kts
Gust
kts
24/11:30pm 22.9 27.1 21.0 89 1.2 CALM 0 0 0 0 1006.6 1006.5 0.0
24/11:00pm 23.1 27.2 20.8 87 1.5 CALM 0 0 0 0 1006.9 1006.8 0.0
24/10:30pm 23.2 27.4 20.9 87 1.5 CALM 0 0 0 0 1006.9 1006.8 0.0

Other Formats:

Comma delimited format used in spreadsheet applications
http://www.bom.gov.au/fwo/IDQ60801/IDQ60801.94576.axf

JavaScript Object Notation format (JSON) in row-major order
http://www.bom.gov.au/fwo/IDQ60801/IDQ60801.94576.json